createdAt,value
2018-08-03T00:01:58.897Z,29.70
2018-08-03T00:07:18.351Z,29.60
2018-08-03T00:09:46.776Z,29.70
2018-08-03T00:12:15.209Z,29.60
2018-08-03T00:14:43.647Z,29.70
2018-08-03T00:17:12.059Z,29.70
2018-08-03T00:19:40.538Z,29.60
2018-08-03T00:22:10.268Z,29.70
2018-08-03T00:24:40.151Z,29.70
2018-08-03T00:27:09.733Z,29.60
2018-08-03T00:29:38.218Z,29.70
2018-08-03T00:32:06.715Z,29.60
2018-08-03T00:34:35.133Z,29.70
2018-08-03T00:37:03.545Z,29.60
2018-08-03T00:39:31.975Z,29.60
2018-08-03T00:42:00.386Z,29.70
2018-08-03T00:44:28.812Z,29.70
2018-08-03T00:46:57.260Z,29.60
2018-08-03T00:49:25.683Z,29.60
2018-08-03T00:51:54.114Z,29.60
2018-08-03T00:54:22.536Z,29.60
2018-08-03T00:56:50.979Z,29.60
2018-08-03T00:59:19.497Z,29.60
2018-08-03T01:01:48.052Z,29.60
2018-08-03T01:04:16.456Z,29.60
2018-08-03T01:06:44.869Z,29.60
2018-08-03T01:09:13.946Z,29.60
2018-08-03T01:11:42.394Z,29.60
2018-08-03T01:14:11.330Z,29.60
2018-08-03T01:16:52.020Z,29.60
2018-08-03T01:19:20.416Z,29.60
2018-08-03T01:21:48.820Z,29.60
2018-08-03T01:24:17.232Z,29.60
2018-08-03T01:26:45.669Z,29.60
2018-08-03T01:32:04.862Z,29.60
2018-08-03T01:34:33.260Z,29.50
2018-08-03T01:37:01.656Z,29.50
2018-08-03T01:39:30.074Z,29.50
2018-08-03T01:41:58.492Z,29.60
2018-08-03T01:44:26.909Z,29.50
2018-08-03T01:46:58.244Z,29.50
2018-08-03T01:49:26.659Z,29.50
2018-08-03T01:51:55.080Z,29.50
2018-08-03T01:54:23.479Z,29.50
2018-08-03T01:56:51.884Z,29.50
2018-08-03T01:59:20.297Z,29.50
2018-08-03T02:01:48.804Z,29.60
2018-08-03T02:04:17.193Z,29.50
2018-08-03T02:06:45.606Z,29.60
2018-08-03T02:09:14.017Z,29.60
2018-08-03T02:11:44.459Z,29.60
2018-08-03T02:14:12.870Z,29.50
2018-08-03T02:16:41.434Z,29.50
2018-08-03T02:19:10.985Z,29.50
2018-08-03T02:21:50.832Z,29.50
2018-08-03T02:24:19.325Z,29.50
2018-08-03T02:26:47.848Z,29.50
2018-08-03T02:29:16.721Z,29.50
2018-08-03T02:31:45.374Z,29.50
2018-08-03T02:34:13.802Z,29.50
2018-08-03T02:36:42.331Z,29.50
2018-08-03T02:39:12.065Z,29.50
2018-08-03T02:41:40.725Z,29.50
2018-08-03T02:44:09.755Z,29.50
2018-08-03T02:46:38.677Z,29.50
2018-08-03T02:49:07.619Z,29.50
2018-08-03T02:51:36.339Z,29.50
2018-08-03T02:54:04.754Z,29.50
2018-08-03T02:56:33.146Z,29.50
2018-08-03T02:59:01.545Z,29.50
2018-08-03T03:01:29.954Z,29.50
2018-08-03T03:06:49.358Z,29.40
2018-08-03T03:09:20.399Z,29.40
2018-08-03T03:11:48.885Z,29.40
2018-08-03T03:14:17.301Z,29.40
2018-08-03T03:16:45.721Z,29.40
2018-08-03T03:19:14.170Z,29.40
2018-08-03T03:21:42.824Z,29.40
2018-08-03T03:24:11.372Z,29.40
2018-08-03T03:26:39.786Z,29.40
2018-08-03T03:29:09.492Z,29.40
2018-08-03T03:31:43.983Z,29.40
2018-08-03T03:34:12.476Z,29.40
2018-08-03T03:36:40.978Z,29.40
2018-08-03T03:39:12.589Z,29.40
2018-08-03T03:41:41.021Z,29.40
2018-08-03T03:44:09.875Z,29.40
2018-08-03T03:46:56.460Z,29.40
2018-08-03T03:49:24.886Z,29.30
2018-08-03T03:51:53.301Z,29.40
2018-08-03T03:54:21.712Z,29.40
2018-08-03T03:56:50.161Z,29.40
2018-08-03T03:59:18.630Z,29.40
2018-08-03T04:01:47.261Z,29.40
2018-08-03T04:04:20.369Z,29.40
2018-08-03T04:06:48.805Z,29.30
2018-08-03T04:09:17.223Z,29.40
2018-08-03T04:11:45.668Z,29.30
2018-08-03T04:14:14.118Z,29.30
2018-08-03T04:16:42.622Z,29.30
2018-08-03T04:19:11.065Z,29.40
2018-08-03T04:21:39.594Z,29.30
2018-08-03T04:24:09.220Z,29.30
2018-08-03T04:26:38.928Z,29.40
2018-08-03T04:29:08.469Z,29.30
2018-08-03T04:31:37.562Z,29.30
2018-08-03T04:34:06.785Z,29.30
2018-08-03T04:36:35.245Z,29.40
2018-08-03T04:39:04.102Z,29.30
2018-08-03T04:41:32.478Z,29.30
2018-08-03T04:44:00.905Z,29.30
2018-08-03T04:46:29.476Z,29.30
2018-08-03T04:48:57.889Z,29.40
2018-08-03T04:51:26.385Z,29.30
2018-08-03T04:53:54.838Z,29.30
2018-08-03T04:56:35.254Z,29.30
2018-08-03T04:59:03.713Z,29.30
2018-08-03T05:01:32.153Z,29.40
2018-08-03T05:04:00.629Z,29.30
2018-08-03T05:06:29.068Z,29.30
2018-08-03T05:08:57.519Z,29.30
2018-08-03T05:11:26.037Z,29.30
2018-08-03T05:13:54.482Z,29.30
2018-08-03T05:16:22.905Z,29.30
2018-08-03T05:18:51.362Z,29.40
2018-08-03T05:21:19.786Z,29.30
2018-08-03T05:23:48.208Z,29.40
2018-08-03T05:26:16.636Z,29.40
2018-08-03T05:28:45.054Z,29.40
2018-08-03T05:31:13.628Z,29.40
2018-08-03T05:33:42.621Z,29.40
2018-08-03T05:36:11.239Z,29.40
2018-08-03T05:38:39.648Z,29.40
2018-08-03T05:41:09.266Z,29.50
2018-08-03T05:43:38.394Z,29.50
2018-08-03T05:46:08.104Z,29.50
2018-08-03T05:48:37.301Z,29.50
2018-08-03T05:51:05.936Z,29.50
2018-08-03T05:53:35.293Z,29.50
2018-08-03T05:56:08.990Z,29.60
2018-08-03T05:58:38.506Z,29.60
2018-08-03T06:01:08.413Z,29.60
2018-08-03T06:03:38.048Z,29.60
2018-08-03T06:06:07.758Z,29.60
2018-08-03T06:08:36.765Z,29.60
2018-08-03T06:11:05.174Z,29.60
2018-08-03T06:13:33.593Z,29.70
2018-08-03T06:16:02.005Z,29.70
2018-08-03T06:18:30.413Z,29.70
2018-08-03T06:20:58.826Z,29.70
2018-08-03T06:23:27.444Z,29.80
2018-08-03T06:25:55.881Z,29.80
2018-08-03T06:28:24.311Z,29.80
2018-08-03T06:30:52.886Z,29.80
2018-08-03T06:33:21.755Z,29.80
2018-08-03T06:35:50.248Z,29.80
2018-08-03T06:41:09.726Z,29.80
2018-08-03T06:43:38.313Z,29.80
2018-08-03T06:46:07.846Z,29.80
2018-08-03T06:48:36.749Z,29.90
2018-08-03T06:51:05.190Z,29.90
2018-08-03T06:53:33.633Z,29.90
2018-08-03T06:56:02.094Z,30.00
2018-08-03T06:58:31.881Z,30.00
2018-08-03T07:01:00.431Z,30.00
2018-08-03T07:03:28.957Z,30.00
2018-08-03T07:05:57.507Z,30.10
2018-08-03T07:08:25.943Z,30.10
2018-08-03T07:10:54.349Z,30.10
2018-08-03T07:13:22.958Z,30.20
2018-08-03T07:15:51.385Z,30.10
2018-08-03T07:18:19.794Z,30.20
2018-08-03T07:20:48.906Z,30.20
2018-08-03T07:23:17.307Z,30.20
2018-08-03T07:25:45.827Z,30.20
2018-08-03T07:28:14.273Z,30.20
2018-08-03T07:30:42.899Z,30.30
2018-08-03T07:33:13.944Z,30.30
2018-08-03T07:35:43.381Z,30.30
2018-08-03T07:38:11.954Z,30.30
2018-08-03T07:40:40.400Z,30.30
2018-08-03T07:43:09.692Z,30.30
2018-08-03T07:45:39.162Z,30.40
2018-08-03T07:48:08.449Z,30.40
2018-08-03T07:50:37.994Z,30.40
2018-08-03T07:53:07.423Z,30.30
2018-08-03T07:55:35.840Z,30.40
2018-08-03T07:58:04.290Z,30.40
2018-08-03T08:00:32.914Z,30.40
2018-08-03T08:03:01.333Z,30.50
2018-08-03T08:05:30.744Z,30.50
2018-08-03T08:07:59.306Z,30.50
2018-08-03T08:10:27.823Z,30.50
2018-08-03T08:12:56.244Z,30.50
2018-08-03T08:15:24.792Z,30.50
2018-08-03T08:17:54.224Z,30.50
2018-08-03T08:20:22.453Z,30.50
2018-08-03T08:22:50.873Z,30.50
2018-08-03T08:25:19.289Z,30.50
2018-08-03T08:27:47.729Z,30.50
2018-08-03T08:30:16.155Z,30.50
2018-08-03T08:32:45.063Z,30.50
2018-08-03T08:35:13.552Z,30.60
2018-08-03T08:37:42.156Z,30.60
2018-08-03T08:40:10.586Z,30.60
2018-08-03T08:42:39.253Z,30.60
2018-08-03T08:45:08.398Z,30.60
2018-08-03T08:47:37.562Z,30.60
2018-08-03T08:50:07.554Z,30.60
2018-08-03T08:52:36.735Z,30.60
2018-08-03T08:55:05.321Z,30.60
2018-08-03T08:57:33.990Z,30.60
2018-08-03T09:00:02.156Z,30.60
2018-08-03T09:02:30.600Z,30.60
2018-08-03T09:04:59.228Z,30.70
2018-08-03T09:07:27.700Z,30.70
2018-08-03T09:09:56.241Z,30.70
2018-08-03T09:12:24.672Z,30.70
2018-08-03T09:14:53.109Z,30.70
2018-08-03T09:17:21.573Z,30.70
2018-08-03T09:19:50.396Z,30.70
2018-08-03T09:22:18.833Z,30.70
2018-08-03T09:27:39.264Z,30.70
2018-08-03T09:32:58.107Z,30.70
2018-08-03T09:35:26.569Z,30.70
2018-08-03T09:37:54.997Z,30.70
2018-08-03T09:40:23.555Z,30.70
2018-08-03T09:42:52.041Z,30.80
2018-08-03T09:45:20.709Z,30.80
2018-08-03T09:47:49.141Z,30.80
2018-08-03T09:50:17.556Z,30.80
2018-08-03T09:52:46.129Z,30.80
2018-08-03T09:55:14.562Z,30.80
2018-08-03T09:57:43.141Z,30.80
2018-08-03T10:00:15.484Z,30.80
2018-08-03T10:02:44.625Z,30.90
2018-08-03T10:05:13.208Z,30.90
2018-08-03T10:07:41.630Z,30.90
2018-08-03T10:10:10.040Z,30.90
2018-08-03T10:12:39.313Z,31.00
2018-08-03T10:15:08.601Z,31.00
2018-08-03T10:17:37.634Z,31.10
2018-08-03T10:20:06.763Z,31.10
2018-08-03T10:22:35.205Z,31.20
2018-08-03T10:25:03.678Z,31.30
2018-08-03T10:27:32.102Z,31.30
2018-08-03T10:30:00.581Z,31.40
2018-08-03T10:32:29.212Z,31.40
2018-08-03T10:34:57.835Z,31.40
2018-08-03T10:37:26.275Z,31.40
2018-08-03T10:39:56.849Z,31.50
2018-08-03T10:42:25.728Z,31.50
2018-08-03T10:44:54.745Z,31.50
2018-08-03T10:47:23.173Z,31.50
2018-08-03T10:49:51.808Z,31.50
2018-08-03T10:52:21.190Z,31.50
2018-08-03T10:54:50.161Z,31.60
2018-08-03T10:57:19.636Z,31.60
2018-08-03T10:59:49.192Z,31.50
2018-08-03T11:02:17.612Z,31.60
2018-08-03T11:04:46.073Z,31.60
2018-08-03T11:07:14.593Z,31.60
2018-08-03T11:09:43.021Z,31.70
2018-08-03T11:12:12.058Z,31.70
2018-08-03T11:14:46.819Z,31.70
2018-08-03T11:17:15.575Z,31.60
2018-08-03T11:19:44.039Z,31.70
2018-08-03T11:22:12.473Z,31.70
2018-08-03T11:24:40.931Z,31.70
2018-08-03T11:27:09.927Z,31.70
2018-08-03T11:29:40.252Z,31.70
2018-08-03T11:32:08.936Z,31.70
2018-08-03T11:34:38.941Z,31.80
2018-08-03T11:37:08.889Z,31.80
2018-08-03T11:39:38.677Z,31.80
2018-08-03T11:42:08.519Z,31.80
2018-08-03T11:44:38.742Z,31.80
2018-08-03T11:47:07.774Z,31.80
2018-08-03T11:49:37.597Z,31.80
2018-08-03T11:52:08.016Z,31.90
2018-08-03T11:54:37.806Z,31.90
2018-08-03T11:57:07.934Z,31.90
2018-08-03T11:59:39.505Z,31.90
2018-08-03T12:02:09.882Z,31.90
2018-08-03T12:04:40.467Z,31.90
2018-08-03T12:07:11.043Z,31.90
2018-08-03T12:09:44.319Z,31.90
2018-08-03T12:12:13.396Z,32.00
2018-08-03T12:14:41.846Z,31.90
2018-08-03T12:17:10.282Z,32.00
2018-08-03T12:19:39.984Z,32.00
2018-08-03T12:22:10.054Z,32.00
2018-08-03T12:24:39.876Z,32.00
2018-08-03T12:27:09.122Z,31.90
2018-08-03T12:29:37.745Z,32.00
2018-08-03T12:32:07.717Z,32.00
2018-08-03T12:34:36.218Z,32.00
2018-08-03T12:37:04.810Z,32.10
2018-08-03T12:39:33.277Z,32.00
2018-08-03T12:42:01.708Z,32.10
2018-08-03T12:44:30.141Z,32.10
2018-08-03T12:46:59.280Z,32.10
2018-08-03T12:49:28.312Z,32.00
2018-08-03T12:51:57.476Z,32.10
2018-08-03T12:54:25.925Z,32.10
2018-08-03T12:56:54.336Z,32.10
2018-08-03T12:59:23.548Z,32.10
2018-08-03T13:01:52.537Z,32.20
2018-08-03T13:04:21.526Z,32.20
2018-08-03T13:06:50.992Z,32.20
2018-08-03T13:09:20.539Z,32.20
2018-08-03T13:11:49.558Z,32.20
2018-08-03T13:14:18.673Z,32.20
2018-08-03T13:19:39.260Z,32.10
2018-08-03T13:22:18.462Z,32.10
2018-08-03T13:24:47.400Z,32.10
2018-08-03T13:27:16.582Z,32.20
2018-08-03T13:29:45.700Z,32.20
2018-08-03T13:32:14.833Z,32.20
2018-08-03T13:34:44.120Z,32.20
2018-08-03T13:37:13.401Z,32.20
2018-08-03T13:39:42.492Z,32.20
2018-08-03T13:42:11.545Z,32.20
2018-08-03T13:44:40.677Z,32.20
2018-08-03T13:47:10.044Z,32.20
2018-08-03T13:49:39.901Z,32.20
2018-08-03T13:52:09.118Z,32.20
2018-08-03T13:54:38.490Z,32.30
2018-08-03T13:57:07.620Z,32.30
2018-08-03T13:59:36.738Z,32.20
2018-08-03T14:02:15.145Z,32.20
2018-08-03T14:04:43.748Z,32.20
2018-08-03T14:07:12.385Z,32.20
2018-08-03T14:09:40.873Z,32.20
2018-08-03T14:12:10.041Z,32.20
2018-08-03T14:14:40.864Z,32.20
2018-08-03T14:17:11.483Z,32.20
2018-08-03T14:19:41.962Z,32.20
2018-08-03T14:22:11.026Z,32.20
2018-08-03T14:24:40.345Z,32.20
2018-08-03T14:27:09.603Z,32.10
2018-08-03T14:29:39.406Z,32.10
2018-08-03T14:32:08.684Z,32.10
2018-08-03T14:34:38.646Z,32.10
2018-08-03T14:37:07.630Z,32.10
2018-08-03T14:39:37.131Z,32.10
2018-08-03T14:42:05.597Z,32.00
2018-08-03T14:44:34.033Z,32.00
2018-08-03T14:47:02.490Z,32.00
2018-08-03T14:49:30.920Z,32.00
2018-08-03T14:51:59.361Z,32.00
2018-08-03T14:54:27.802Z,32.00
2018-08-03T14:56:56.230Z,32.00
2018-08-03T14:59:24.657Z,31.90
2018-08-03T15:01:53.101Z,31.80
2018-08-03T15:04:21.525Z,31.90
2018-08-03T15:06:49.969Z,31.90
2018-08-03T15:09:18.390Z,31.90
2018-08-03T15:11:46.833Z,31.90
2018-08-03T15:14:15.375Z,31.90
2018-08-03T15:16:43.809Z,31.90
2018-08-03T15:19:12.238Z,31.90
2018-08-03T15:21:40.650Z,31.90
2018-08-03T15:24:10.022Z,31.90
2018-08-03T15:26:39.797Z,31.90
2018-08-03T15:29:08.970Z,31.90
2018-08-03T15:31:38.558Z,31.90
2018-08-03T15:34:07.613Z,31.90
2018-08-03T15:36:36.222Z,31.90
2018-08-03T15:39:07.569Z,31.90
2018-08-03T15:41:36.664Z,31.90
2018-08-03T15:44:05.085Z,31.90
2018-08-03T15:46:33.544Z,31.90
2018-08-03T15:49:01.918Z,31.90
2018-08-03T15:51:30.321Z,31.90
2018-08-03T15:53:59.125Z,31.90
2018-08-03T15:56:27.553Z,32.00
2018-08-03T15:58:55.976Z,31.90
2018-08-03T16:01:24.418Z,31.90
2018-08-03T16:03:52.970Z,32.00
2018-08-03T16:06:21.383Z,31.90
2018-08-03T16:08:49.907Z,31.90
2018-08-03T16:11:18.338Z,31.90
2018-08-03T16:13:46.776Z,31.90
2018-08-03T16:16:15.586Z,31.90
2018-08-03T16:18:44.119Z,31.90
2018-08-03T16:21:12.562Z,31.90
2018-08-03T16:23:41.061Z,31.90
2018-08-03T16:26:09.219Z,31.90
2018-08-03T16:28:38.869Z,31.90
2018-08-03T16:31:08.591Z,31.90
2018-08-03T16:33:39.821Z,31.90
2018-08-03T16:36:09.802Z,31.90
2018-08-03T16:38:39.402Z,31.90
2018-08-03T16:41:09.097Z,31.90
2018-08-03T16:43:37.953Z,31.90
2018-08-03T16:46:07.789Z,31.90
2018-08-03T16:48:38.380Z,31.80
2018-08-03T16:53:58.153Z,31.70
2018-08-03T16:56:26.498Z,31.60
2018-08-03T16:58:55.434Z,31.70
2018-08-03T17:01:24.129Z,31.60
2018-08-03T17:03:52.945Z,31.70
2018-08-03T17:06:21.405Z,31.50
2018-08-03T17:08:49.920Z,31.60
2018-08-03T17:11:20.981Z,31.50
2018-08-03T17:13:51.409Z,31.40
2018-08-03T17:16:40.545Z,31.40
2018-08-03T17:19:12.153Z,31.30
2018-08-03T17:21:41.041Z,31.30
2018-08-03T17:24:09.473Z,31.30
2018-08-03T17:26:39.227Z,31.20
2018-08-03T17:29:08.948Z,31.30
2018-08-03T17:31:38.442Z,31.20
2018-08-03T17:34:08.860Z,31.20
2018-08-03T17:36:38.718Z,31.20
2018-08-03T17:39:10.455Z,31.20
2018-08-03T17:41:39.862Z,31.20
2018-08-03T17:44:09.326Z,31.20
2018-08-03T17:46:38.844Z,31.20
2018-08-03T17:49:08.025Z,31.20
2018-08-03T17:51:38.660Z,31.10
2018-08-03T17:54:08.633Z,31.20
2018-08-03T17:56:38.008Z,31.20
2018-08-03T17:59:08.827Z,31.10
2018-08-03T18:01:39.363Z,31.10
2018-08-03T18:04:10.971Z,31.10
2018-08-03T18:06:39.518Z,31.10
2018-08-03T18:09:08.784Z,31.10
2018-08-03T18:11:37.954Z,31.10
2018-08-03T18:14:06.700Z,31.10
2018-08-03T18:16:35.207Z,31.10
2018-08-03T18:19:03.993Z,31.10
2018-08-03T18:21:32.442Z,31.10
2018-08-03T18:24:00.877Z,31.10
2018-08-03T18:26:29.031Z,31.10
2018-08-03T18:28:57.554Z,31.10
2018-08-03T18:31:25.936Z,31.10
2018-08-03T18:33:54.393Z,31.10
2018-08-03T18:36:22.567Z,31.00
2018-08-03T18:38:51.353Z,31.10
2018-08-03T18:41:19.793Z,31.00
2018-08-03T18:43:48.290Z,31.00
2018-08-03T18:46:16.735Z,31.00
2018-08-03T18:48:45.225Z,31.00
2018-08-03T18:51:13.711Z,31.00
2018-08-03T18:53:42.137Z,31.00
2018-08-03T18:56:10.840Z,31.00
2018-08-03T18:58:39.278Z,31.00
2018-08-03T19:01:08.401Z,31.00
2018-08-03T19:03:37.710Z,30.90
2018-08-03T19:06:06.333Z,31.00
2018-08-03T19:08:34.929Z,31.00
2018-08-03T19:11:03.403Z,30.90
2018-08-03T19:13:31.842Z,30.90
2018-08-03T19:16:00.274Z,30.90
2018-08-03T19:18:28.716Z,30.90
2018-08-03T19:20:57.159Z,30.90
2018-08-03T19:23:26.098Z,30.90
2018-08-03T19:25:54.563Z,30.90
2018-08-03T19:28:23.276Z,30.90
2018-08-03T19:30:52.808Z,31.00
2018-08-03T19:33:22.032Z,30.90
2018-08-03T19:35:51.091Z,30.90
2018-08-03T19:38:20.366Z,30.90
2018-08-03T19:40:49.654Z,30.90
2018-08-03T19:49:10.522Z,30.80
2018-08-03T19:51:39.692Z,30.80
2018-08-03T19:54:09.866Z,30.80
2018-08-03T19:56:40.445Z,30.80
2018-08-03T19:59:10.583Z,30.80
2018-08-03T21:05:29.577Z,30.60
2018-08-03T21:07:58.090Z,30.60
2018-08-03T21:10:26.597Z,30.60
2018-08-03T21:12:55.244Z,30.60
2018-08-03T21:15:23.687Z,30.60
2018-08-03T21:17:52.131Z,30.60
2018-08-03T21:20:20.621Z,30.60
2018-08-03T21:22:49.254Z,30.60
2018-08-03T21:25:17.715Z,30.60
2018-08-03T21:27:46.192Z,30.50
2018-08-03T21:30:14.688Z,30.60
2018-08-03T21:32:43.083Z,30.60
2018-08-03T21:35:11.490Z,30.50
2018-08-03T21:37:39.930Z,30.50
2018-08-03T21:40:08.350Z,30.50
2018-08-03T21:42:36.821Z,30.50
2018-08-03T21:45:05.895Z,30.50
2018-08-03T21:47:34.350Z,30.50
2018-08-03T21:50:02.760Z,30.50
2018-08-03T21:52:31.613Z,30.50
2018-08-03T21:55:00.079Z,30.50
2018-08-03T21:57:28.511Z,30.50
2018-08-03T21:59:57.131Z,30.50
2018-08-03T22:02:25.609Z,30.50
2018-08-03T22:04:54.059Z,30.50
2018-08-03T22:07:22.494Z,30.50
2018-08-03T22:09:50.933Z,30.50
2018-08-03T22:12:19.376Z,30.50
2018-08-03T22:14:47.862Z,30.50
2018-08-03T22:17:16.286Z,30.50
2018-08-03T22:19:44.815Z,30.50
2018-08-03T22:22:13.262Z,30.40
2018-08-03T22:24:41.815Z,30.40
2018-08-03T22:27:10.281Z,30.50
2018-08-03T22:29:38.682Z,30.40
2018-08-03T22:32:07.185Z,30.40
2018-08-03T22:34:35.637Z,30.40
2018-08-03T22:37:04.078Z,30.40
2018-08-03T22:39:32.495Z,30.40
2018-08-03T22:42:02.086Z,30.40
2018-08-03T22:44:30.525Z,30.40
2018-08-03T22:46:59.004Z,30.40
2018-08-03T22:49:27.462Z,30.40
2018-08-03T22:51:55.897Z,30.40
2018-08-03T22:54:24.343Z,30.40
2018-08-03T22:56:52.845Z,30.40
2018-08-03T22:59:21.323Z,30.30
2018-08-03T23:01:49.787Z,30.40
2018-08-03T23:04:18.228Z,30.40
2018-08-03T23:06:46.663Z,30.40
2018-08-03T23:09:15.114Z,30.40
2018-08-03T23:11:43.572Z,30.40
2018-08-03T23:14:12.067Z,30.40
2018-08-03T23:16:40.495Z,30.30
2018-08-03T23:19:08.907Z,30.40
2018-08-03T23:21:37.306Z,30.30
2018-08-03T23:24:05.770Z,30.30
2018-08-03T23:26:34.188Z,30.30
2018-08-03T23:29:02.605Z,30.30
2018-08-03T23:31:31.064Z,30.30
2018-08-03T23:33:59.673Z,30.30
2018-08-03T23:36:28.101Z,30.30
2018-08-03T23:38:56.525Z,30.30
2018-08-03T23:41:24.976Z,30.30
2018-08-03T23:43:53.471Z,30.30
2018-08-03T23:46:21.908Z,30.30
2018-08-03T23:48:50.369Z,30.30
2018-08-03T23:51:19.203Z,30.30
2018-08-03T23:53:47.704Z,30.30
2018-08-03T23:56:16.162Z,30.30
2018-08-03T23:58:44.583Z,30.30
